Forsyth, Georgia
Current Conditions -  °F | °C
As of 2:35 PM on Tuesday 21 Oct 2014 (Local Time) from KOPN Reporting Station
Clear Clear  
Wind Chill: 77°   Ceiling: Unl
Heat Index: 78°   Visibility: 7mi
Dew Point: 54°   Wind: 8mph
Humidity: 44%   Direction: 350°N
Pressure: 29.99"   Gusts: NA
Location:  33.03°N, 83.94°W
Report Text: KOPN 211835Z AUTO 35007KT 310V020 7SM CLR 25/12 A2999 RMK AO2
Loading
Personal Weather Stations






























Interactive Weather Map
Tropical Storm Tracking
New forecast layout! Learn more

10-Day Weather Forecast

Advertisements
Track Severe Weather on mobile